Aviation Digital Data Service (ADDS)

Output produced by METARs form (0237 UTC 03 July 2015)
found at http://www.aviationweather.gov/adds/metars/
 
KJFK 022322Z 0300/0406 VRB04KT P6SM FEW060 BKN250 
     FM030500 36005KT P6SM FEW250 
     FM031100 02007KT P6SM FEW250 
     FM031700 17008KT P6SM SCT250 
     FM032000 18011KT P6SM BKN250 
     FM040200 14005KT P6SM BKN180